Time;durP1;ratioP1;P1;durP2;ratioP2;P2;SDS_P1;SDS_P2;PMS_P1;PMS_P2;Temp;Humidity;BMP_temperature;BMP_pressure;BME280_temperature;BME280_humidity;BME280_pressure;Samples;Min_cycle;Max_cycle;Signal;HPM_P1;HPM_P2
2023/06/19 00:02:15;;;;;;;4.33;4.03;;;23.10;53.60;;;;;;5119569;27;20666;-71
2023/06/19 00:04:42;;;;;;;4.77;4.27;;;23.20;53.70;;;;;;5118770;27;20677;-71
2023/06/19 00:07:10;;;;;;;5.07;4.57;;;23.20;53.30;;;;;;5118507;27;20998;-71
2023/06/19 00:09:36;;;;;;;5.50;4.60;;;23.10;53.20;;;;;;5119678;27;20627;-71
2023/06/19 00:12:04;;;;;;;4.20;3.80;;;23.10;53.40;;;;;;5120142;27;20647;-71
2023/06/19 00:14:31;;;;;;;4.63;4.30;;;23.10;53.60;;;;;;5119061;27;20638;-71
2023/06/19 00:16:57;;;;;;;4.70;4.20;;;23.10;53.80;;;;;;5108869;27;20655;-71
2023/06/19 00:19:24;;;;;;;5.13;4.73;;;23.10;53.50;;;;;;5117455;27;20619;-71
2023/06/19 00:21:51;;;;;;;4.37;3.77;;;23.10;53.50;;;;;;5113407;27;20698;-71
2023/06/19 00:24:19;;;;;;;4.87;4.40;;;23.10;53.30;;;;;;5121957;27;20681;-71
2023/06/19 00:26:46;;;;;;;6.10;4.70;;;23.10;53.40;;;;;;5119761;27;20642;-71
2023/06/19 00:29:13;;;;;;;5.70;4.60;;;23.10;53.60;;;;;;5100080;27;20627;-71
2023/06/19 00:31:40;;;;;;;5.57;4.70;;;23.10;53.80;;;;;;5116192;27;20670;-71
2023/06/19 00:34:07;;;;;;;5.80;5.33;;;23.00;53.90;;;;;;5122587;27;20615;-71
2023/06/19 00:36:40;;;;;;;4.63;3.67;;;22.90;54.20;;;;;;5120022;27;20754;-71
2023/06/19 00:39:07;;;;;;;4.57;4.10;;;22.80;54.30;;;;;;5116486;27;20624;-71
2023/06/19 00:41:36;;;;;;;4.67;4.17;;;22.80;54.60;;;;;;5108468;27;20663;-71
2023/06/19 00:44:03;;;;;;;6.07;5.10;;;22.90;54.90;;;;;;5118871;27;20689;-71
2023/06/19 00:46:30;;;;;;;4.47;4.07;;;22.80;55.30;;;;;;5119423;27;21234;-71
2023/06/19 00:48:56;;;;;;;5.80;4.60;;;22.70;55.90;;;;;;5114828;27;20632;-71
2023/06/19 00:51:23;;;;;;;5.20;4.70;;;22.70;56.10;;;;;;5116810;27;20650;-71
2023/06/19 00:53:50;;;;;;;3.90;3.60;;;22.50;56.00;;;;;;5116747;27;20619;-71
2023/06/19 00:56:18;;;;;;;5.60;4.57;;;22.60;56.00;;;;;;5114913;27;20656;-71
2023/06/19 00:58:46;;;;;;;5.43;4.80;;;22.60;55.80;;;;;;5116786;27;20624;-71
2023/06/19 01:01:13;;;;;;;6.07;5.20;;;22.60;55.60;;;;;;5116939;27;20648;-71
2023/06/19 01:03:40;;;;;;;5.60;4.30;;;22.60;55.70;;;;;;5098300;27;20669;-71
2023/06/19 01:06:11;;;;;;;5.17;4.70;;;22.60;55.70;;;;;;5111698;27;20667;-71
2023/06/19 01:08:49;;;;;;;5.20;4.10;;;22.50;55.90;;;;;;5120985;27;20626;-72
2023/06/19 01:11:20;;;;;;;5.27;4.80;;;22.50;55.90;;;;;;5119976;27;21262;-71
2023/06/19 01:13:53;;;;;;;5.20;4.70;;;22.50;55.90;;;;;;5114466;27;20668;-71
2023/06/19 01:16:22;;;;;;;3.80;3.50;;;22.40;57.10;;;;;;5121394;27;20694;-71
2023/06/19 01:18:50;;;;;;;4.60;4.20;;;22.20;57.60;;;;;;5114304;27;20725;-71
2023/06/19 01:21:19;;;;;;;5.07;4.30;;;22.10;57.40;;;;;;5113862;27;20668;-71
2023/06/19 01:23:48;;;;;;;5.33;4.50;;;22.10;57.30;;;;;;5115286;27;20647;-71
2023/06/19 01:26:18;;;;;;;4.93;4.53;;;22.00;57.00;;;;;;5114431;27;20651;-71
2023/06/19 01:28:47;;;;;;;7.53;4.60;;;22.10;56.70;;;;;;5112954;27;20642;-71
2023/06/19 01:31:29;;;;;;;4.77;4.37;;;22.20;56.40;;;;;;5109560;27;20668;-71
2023/06/19 01:33:58;;;;;;;3.57;3.27;;;22.20;55.90;;;;;;5108676;27;20621;-71
2023/06/19 01:36:26;;;;;;;3.57;3.27;;;22.30;55.50;;;;;;5111200;27;20652;-71
2023/06/19 01:38:58;;;;;;;3.80;3.47;;;22.20;55.80;;;;;;5117126;27;20620;-71
2023/06/19 01:41:26;;;;;;;3.17;2.87;;;22.20;56.00;;;;;;5116956;27;20751;-71
2023/06/19 01:43:55;;;;;;;4.40;3.83;;;22.10;56.20;;;;;;5111659;27;20765;-71
2023/06/19 01:46:24;;;;;;;4.27;3.53;;;22.20;56.20;;;;;;5110404;27;20648;-71
2023/06/19 01:48:51;;;;;;;3.87;3.40;;;22.10;56.60;;;;;;5115233;27;20627;-71
2023/06/19 01:51:19;;;;;;;3.43;3.00;;;22.10;56.60;;;;;;5106830;27;20761;-71
2023/06/19 01:53:47;;;;;;;4.10;3.07;;;22.10;56.70;;;;;;5114482;27;20676;-71
2023/06/19 01:56:16;;;;;;;3.10;2.80;;;22.10;56.70;;;;;;5109635;27;20669;-71
2023/06/19 01:58:44;;;;;;;3.50;3.20;;;22.10;57.50;;;;;;5116969;27;20730;-70
2023/06/19 02:01:12;;;;;;;3.93;2.90;;;22.10;57.00;;;;;;5122961;27;20643;-71
2023/06/19 02:03:39;;;;;;;5.10;3.20;;;22.10;57.10;;;;;;5114853;27;20630;-71
2023/06/19 02:06:08;;;;;;;3.37;3.07;;;22.20;57.30;;;;;;5109487;27;20647;-71
2023/06/19 02:08:35;;;;;;;3.17;2.87;;;22.10;57.70;;;;;;5118045;27;20624;-71
2023/06/19 02:11:02;;;;;;;3.30;3.00;;;22.00;57.80;;;;;;5104806;27;20652;-71
2023/06/19 02:13:30;;;;;;;3.57;3.27;;;22.00;57.90;;;;;;5118027;27;20612;-71
2023/06/19 02:15:57;;;;;;;3.23;2.93;;;22.10;58.70;;;;;;5122952;27;21100;-71
2023/06/19 02:18:23;;;;;;;2.60;2.50;;;22.00;58.50;;;;;;5113722;27;20629;-70
2023/06/19 02:20:50;;;;;;;3.07;2.77;;;22.10;58.80;;;;;;5117077;27;20650;-71
2023/06/19 02:23:17;;;;;;;3.93;3.23;;;22.00;58.80;;;;;;5117279;27;20655;-71
2023/06/19 02:25:45;;;;;;;3.53;3.23;;;21.90;58.90;;;;;;5109520;27;20648;-71
2023/06/19 02:28:13;;;;;;;3.80;3.13;;;22.00;59.00;;;;;;5118790;27;21184;-71
2023/06/19 02:30:41;;;;;;;3.50;3.20;;;21.90;59.00;;;;;;5114462;27;20748;-71
2023/06/19 02:33:09;;;;;;;2.37;2.17;;;21.90;59.50;;;;;;5108741;27;20621;-71
2023/06/19 02:35:37;;;;;;;3.00;2.80;;;21.90;59.50;;;;;;5109411;27;20661;-71
2023/06/19 02:38:05;;;;;;;3.60;3.30;;;21.90;59.60;;;;;;5117883;27;20628;-71
2023/06/19 02:40:31;;;;;;;3.27;2.97;;;21.90;59.60;;;;;;5118013;27;20650;-70
2023/06/19 02:42:58;;;;;;;3.80;3.10;;;21.90;59.90;;;;;;5115776;27;20630;-71
2023/06/19 02:45:26;;;;;;;4.17;3.77;;;21.80;59.80;;;;;;5113131;27;20728;-71
2023/06/19 02:47:54;;;;;;;4.07;3.67;;;21.80;60.20;;;;;;5113274;27;20647;-71
2023/06/19 02:50:22;;;;;;;4.13;3.83;;;21.80;60.50;;;;;;5122013;27;20658;-71
2023/06/19 02:52:49;;;;;;;3.30;2.80;;;21.90;60.60;;;;;;5115498;27;20707;-71
2023/06/19 02:55:17;;;;;;;3.53;3.23;;;21.90;59.90;;;;;;5118116;27;21053;-71
2023/06/19 02:57:44;;;;;;;3.30;3.00;;;21.80;59.90;;;;;;5113135;27;20662;-71
2023/06/19 03:00:14;;;;;;;3.30;2.70;;;21.80;60.20;;;;;;5101369;27;20711;-71
2023/06/19 03:02:43;;;;;;;3.00;2.70;;;21.90;60.30;;;;;;5120068;27;20619;-71
2023/06/19 03:05:14;;;;;;;4.80;2.60;;;21.90;60.20;;;;;;5116775;27;20667;-71
2023/06/19 03:07:41;;;;;;;2.60;2.40;;;21.80;60.60;;;;;;5110274;27;20628;-71
2023/06/19 03:10:10;;;;;;;3.00;2.60;;;21.90;60.50;;;;;;5107790;27;20648;-71
2023/06/19 03:12:37;;;;;;;2.87;1.90;;;21.70;61.40;;;;;;5118176;27;20628;-71
2023/06/19 03:15:05;;;;;;;3.17;2.43;;;21.80;60.90;;;;;;5118057;28;20648;-71
2023/06/19 03:17:32;;;;;;;3.10;2.30;;;21.80;60.70;;;;;;5116266;28;20620;-71
2023/06/19 03:19:59;;;;;;;1.97;1.87;;;21.80;61.00;;;;;;5113325;28;20707;-71
2023/06/19 03:22:27;;;;;;;2.47;2.27;;;21.80;61.00;;;;;;5119217;28;20735;-71
2023/06/19 03:24:54;;;;;;;2.33;2.13;;;21.70;61.20;;;;;;5116337;28;21248;-71
2023/06/19 03:27:21;;;;;;;2.70;2.03;;;21.70;61.40;;;;;;5115324;28;21096;-71
2023/06/19 03:29:48;;;;;;;2.17;2.00;;;21.60;61.40;;;;;;5109291;28;20735;-71
2023/06/19 03:32:15;;;;;;;2.30;1.90;;;21.60;62.00;;;;;;5109797;28;20651;-71
2023/06/19 03:34:43;;;;;;;2.10;1.90;;;21.70;62.00;;;;;;5105290;28;21267;-71
2023/06/19 03:37:09;;;;;;;2.00;1.80;;;21.70;61.50;;;;;;5112687;28;20697;-71
2023/06/19 03:39:38;;;;;;;2.30;2.07;;;21.70;61.60;;;;;;5115129;27;20616;-71
2023/06/19 03:42:05;;;;;;;2.13;1.93;;;21.80;61.00;;;;;;5117709;27;20644;-71
2023/06/19 03:44:32;;;;;;;2.03;1.73;;;21.70;61.60;;;;;;5120453;27;20663;-71
2023/06/19 03:46:59;;;;;;;2.10;2.00;;;21.60;62.80;;;;;;5115747;28;20651;-71
2023/06/19 03:49:26;;;;;;;1.80;1.70;;;21.50;63.30;;;;;;5114368;27;20971;-71
2023/06/19 03:51:54;;;;;;;2.87;2.10;;;21.50;63.20;;;;;;5110373;28;20656;-71
2023/06/19 03:54:21;;;;;;;2.03;1.83;;;21.30;65.50;;;;;;5116686;28;20672;-71
2023/06/19 03:56:49;;;;;;;1.80;1.37;;;21.40;64.90;;;;;;5119484;28;20661;-71
2023/06/19 03:59:16;;;;;;;2.30;1.93;;;21.40;62.90;;;;;;5110423;27;21180;-70
2023/06/19 04:01:43;;;;;;;2.27;1.90;;;21.50;63.50;;;;;;5120913;28;20643;-71
2023/06/19 04:04:09;;;;;;;2.17;1.80;;;21.40;65.80;;;;;;5094925;28;20728;-71
2023/06/19 04:06:36;;;;;;;1.53;1.33;;;21.30;64.90;;;;;;5113687;28;20647;-71
2023/06/19 04:09:04;;;;;;;1.87;1.77;;;21.20;65.90;;;;;;5118253;28;21254;-71
2023/06/19 04:11:31;;;;;;;2.33;2.13;;;21.20;70.00;;;;;;5110818;28;21030;-71
2023/06/19 04:13:59;;;;;;;2.27;1.27;;;21.30;69.00;;;;;;5118261;28;20617;-71
2023/06/19 04:16:26;;;;;;;2.13;1.93;;;21.30;70.20;;;;;;5108845;28;20673;-71
2023/06/19 04:18:53;;;;;;;2.30;1.47;;;21.30;69.50;;;;;;5115013;28;21086;-70
2023/06/19 04:21:19;;;;;;;1.63;1.53;;;21.20;69.30;;;;;;5116331;27;20647;-70
2023/06/19 04:23:46;;;;;;;1.47;1.37;;;21.00;70.40;;;;;;5120812;27;20627;-70
2023/06/19 04:26:13;;;;;;;2.00;1.87;;;21.10;71.60;;;;;;5117197;27;21225;-70
2023/06/19 04:28:41;;;;;;;2.60;2.00;;;21.20;71.10;;;;;;5119523;27;20608;-70
2023/06/19 04:31:09;;;;;;;2.83;2.63;;;21.00;71.40;;;;;;5121748;27;20666;-70
2023/06/19 04:33:36;;;;;;;3.97;2.10;;;21.20;72.50;;;;;;5114366;27;22142;-70
2023/06/19 04:36:03;;;;;;;1.70;1.60;;;21.10;70.50;;;;;;5118852;27;20734;-71
2023/06/19 04:38:30;;;;;;;2.33;2.13;;;21.20;70.70;;;;;;5097455;27;21207;-70
2023/06/19 04:40:57;;;;;;;1.83;1.73;;;21.00;70.40;;;;;;5100294;27;21299;-70
2023/06/19 04:43:25;;;;;;;1.60;1.47;;;20.90;71.00;;;;;;5115558;27;20991;-70
2023/06/19 04:45:52;;;;;;;1.63;1.53;;;21.00;71.60;;;;;;5115454;27;20653;-73
2023/06/19 04:48:25;;;;;;;2.30;2.10;;;21.10;72.20;;;;;;5104805;27;20615;-70
2023/06/19 04:50:55;;;;;;;1.83;1.67;;;21.20;71.80;;;;;;5117500;27;20655;-71
2023/06/19 04:53:22;;;;;;;2.23;2.07;;;21.10;71.70;;;;;;5110596;27;20613;-72
2023/06/19 04:55:50;;;;;;;1.73;1.63;;;21.20;71.50;;;;;;5111881;27;20674;-76
2023/06/19 04:58:16;;;;;;;2.30;2.10;;;21.30;71.40;;;;;;5113969;27;20751;-71
2023/06/19 05:00:43;;;;;;;1.90;1.80;;;21.20;71.30;;;;;;5113003;27;20224;-71
2023/06/19 05:03:13;;;;;;;2.13;1.90;;;21.20;71.30;;;;;;5111485;27;20624;-72
2023/06/19 05:05:41;;;;;;;2.53;1.90;;;21.10;71.70;;;;;;5112872;27;20647;-72
2023/06/19 05:08:08;;;;;;;2.80;2.60;;;21.20;72.30;;;;;;5113589;27;20627;-71
2023/06/19 05:10:35;;;;;;;2.00;1.80;;;21.30;72.10;;;;;;5107485;27;20649;-71
2023/06/19 05:13:03;;;;;;;1.73;1.63;;;21.30;72.00;;;;;;5116910;27;20649;-71
2023/06/19 05:15:29;;;;;;;1.97;1.77;;;21.30;73.00;;;;;;5120617;27;20699;-75
2023/06/19 05:17:56;;;;;;;2.07;1.50;;;21.30;74.10;;;;;;5103136;27;20624;-76
2023/06/19 05:20:23;;;;;;;1.63;1.53;;;21.40;73.90;;;;;;5114852;27;20635;-78
2023/06/19 05:22:51;;;;;;;1.70;1.50;;;21.40;73.50;;;;;;5118368;27;20628;-76
2023/06/19 05:25:18;;;;;;;2.43;2.23;;;21.40;73.40;;;;;;5116248;27;20661;-76
2023/06/19 05:27:45;;;;;;;2.23;1.70;;;21.20;73.70;;;;;;5109294;27;20620;-78
2023/06/19 05:30:12;;;;;;;1.80;1.50;;;21.30;74.00;;;;;;5114291;27;20621;-77
2023/06/19 05:32:39;;;;;;;1.70;1.60;;;21.20;74.20;;;;;;5109993;27;20628;-77
2023/06/19 05:35:07;;;;;;;1.70;1.60;;;21.20;74.30;;;;;;5115410;27;20658;-76
2023/06/19 05:37:34;;;;;;;2.10;1.90;;;21.30;75.00;;;;;;5106124;27;20672;-76
2023/06/19 05:40:03;;;;;;;1.67;1.57;;;21.40;73.30;;;;;;5103977;27;20625;-76
2023/06/19 05:42:30;;;;;;;2.50;1.60;;;21.50;72.70;;;;;;5110498;27;21188;-76
2023/06/19 05:44:57;;;;;;;1.90;1.80;;;21.60;72.90;;;;;;5110299;27;20624;-76
2023/06/19 05:47:25;;;;;;;2.23;2.07;;;21.70;72.90;;;;;;5105734;27;20957;-77
2023/06/19 05:49:52;;;;;;;2.17;1.80;;;21.80;73.00;;;;;;5112393;27;20963;-77
2023/06/19 05:52:19;;;;;;;2.20;1.90;;;21.90;73.00;;;;;;5108227;27;21005;-77
2023/06/19 05:54:46;;;;;;;2.07;1.87;;;22.10;71.80;;;;;;5115141;27;20635;-76
2023/06/19 05:57:15;;;;;;;2.53;2.33;;;21.90;71.80;;;;;;5115294;27;20656;-77
2023/06/19 05:59:42;;;;;;;2.50;2.30;;;22.00;72.60;;;;;;5120453;27;20627;-77
2023/06/19 06:02:09;;;;;;;1.93;1.80;;;22.10;73.20;;;;;;5115091;27;20644;-77
2023/06/19 06:04:36;;;;;;;1.83;1.40;;;22.00;72.40;;;;;;5107366;27;21061;-77
2023/06/19 06:07:03;;;;;;;2.17;1.97;;;22.00;73.30;;;;;;5116045;27;20667;-72
2023/06/19 06:09:30;;;;;;;1.83;1.37;;;21.90;72.80;;;;;;5117525;27;20630;-72
2023/06/19 06:11:57;;;;;;;1.83;1.73;;;22.10;72.40;;;;;;5111092;27;20763;-72
2023/06/19 06:14:25;;;;;;;2.20;1.80;;;22.20;72.30;;;;;;5111819;27;20664;-72
2023/06/19 06:16:52;;;;;;;1.60;1.50;;;22.30;72.00;;;;;;5115390;27;20773;-72
2023/06/19 06:19:20;;;;;;;2.20;1.60;;;22.30;71.80;;;;;;5105903;27;20727;-71
2023/06/19 06:21:47;;;;;;;1.60;1.50;;;22.30;72.20;;;;;;5114144;27;20654;-72
2023/06/19 06:24:14;;;;;;;2.00;1.80;;;22.30;73.00;;;;;;5120512;27;20670;-72
2023/06/19 06:26:41;;;;;;;1.60;1.30;;;22.40;72.30;;;;;;5105267;27;20655;-72
2023/06/19 06:29:08;;;;;;;1.70;1.60;;;22.40;72.00;;;;;;5106029;27;20663;-71
2023/06/19 06:31:38;;;;;;;2.20;2.03;;;22.40;71.70;;;;;;5100968;27;20763;-72
2023/06/19 06:34:05;;;;;;;1.93;1.70;;;22.40;72.10;;;;;;5102622;27;20657;-71
2023/06/19 06:36:32;;;;;;;1.87;1.60;;;22.60;71.10;;;;;;5110991;27;20675;-71
2023/06/19 06:38:59;;;;;;;1.70;1.60;;;22.80;71.00;;;;;;5110297;27;20634;-72
2023/06/19 06:41:26;;;;;;;2.10;1.27;;;22.70;70.10;;;;;;5106540;27;20650;-73
2023/06/19 06:43:55;;;;;;;1.40;1.30;;;22.80;69.50;;;;;;5105982;27;20638;-72
2023/06/19 06:46:22;;;;;;;1.37;1.27;;;22.90;69.20;;;;;;5106890;27;20759;-72
2023/06/19 06:48:50;;;;;;;2.17;1.73;;;23.10;69.20;;;;;;5116642;27;20674;-72
2023/06/19 06:51:17;;;;;;;1.27;1.17;;;23.30;67.60;;;;;;5110748;27;20652;-73
2023/06/19 06:53:44;;;;;;;1.73;1.63;;;23.40;67.70;;;;;;5115442;27;20630;-72
2023/06/19 06:56:11;;;;;;;1.90;1.80;;;23.50;66.70;;;;;;5107436;27;20675;-72
2023/06/19 06:58:38;;;;;;;4.50;2.00;;;23.50;66.70;;;;;;5115947;27;21345;-72
2023/06/19 07:01:05;;;;;;;1.73;1.63;;;23.50;66.70;;;;;;5119736;27;20659;-72
2023/06/19 07:03:32;;;;;;;1.90;1.63;;;23.40;66.10;;;;;;5116005;27;20624;-72
2023/06/19 07:06:01;;;;;;;2.50;1.90;;;23.40;66.10;;;;;;5110627;27;20671;-72
2023/06/19 07:08:27;;;;;;;2.00;1.80;;;23.40;66.70;;;;;;5111833;27;20715;-72
2023/06/19 07:10:54;;;;;;;1.30;1.20;;;23.40;66.60;;;;;;5113887;27;20660;-72
2023/06/19 07:13:21;;;;;;;1.63;1.53;;;23.50;66.10;;;;;;5113242;27;20605;-72
2023/06/19 07:15:49;;;;;;;2.40;1.90;;;23.60;65.50;;;;;;5115059;27;21231;-73
2023/06/19 07:18:19;;;;;;;1.50;1.13;;;23.70;65.70;;;;;;5108083;27;20640;-72
2023/06/19 07:20:45;;;;;;;1.83;1.50;;;23.80;65.60;;;;;;5115807;28;20700;-72
2023/06/19 07:23:15;;;;;;;1.40;1.30;;;23.80;65.20;;;;;;5109466;28;20626;-72
2023/06/19 07:25:42;;;;;;;1.57;1.47;;;24.00;65.30;;;;;;5115184;28;20655;-72
2023/06/19 07:28:08;;;;;;;1.87;1.67;;;24.20;64.20;;;;;;5112529;28;20625;-72
2023/06/19 07:30:35;;;;;;;1.67;1.57;;;24.30;63.10;;;;;;5108941;28;21397;-73
2023/06/19 07:33:02;;;;;;;1.37;1.13;;;24.40;63.90;;;;;;5113496;28;21063;-72
2023/06/19 07:35:29;;;;;;;2.67;1.80;;;24.40;63.70;;;;;;5111338;28;20774;-72
2023/06/19 07:37:55;;;;;;;1.70;1.57;;;24.30;63.10;;;;;;5102341;27;20191;-72
2023/06/19 07:40:24;;;;;;;1.40;1.30;;;24.40;63.10;;;;;;5104110;28;20629;-73
2023/06/19 07:42:51;;;;;;;1.70;1.60;;;24.40;63.30;;;;;;5108320;27;20723;-72
2023/06/19 07:45:17;;;;;;;2.17;1.97;;;24.70;62.60;;;;;;5110095;27;20627;-72
2023/06/19 07:47:44;;;;;;;1.50;1.40;;;24.80;62.90;;;;;;5104238;28;20627;-72
2023/06/19 07:50:11;;;;;;;2.23;1.70;;;25.00;61.80;;;;;;5104637;27;20740;-72
2023/06/19 07:52:38;;;;;;;1.80;1.70;;;25.00;62.00;;;;;;5118333;28;20625;-72
2023/06/19 07:55:05;;;;;;;2.30;2.20;;;25.30;62.00;;;;;;5106270;28;20733;-72
2023/06/19 07:57:35;;;;;;;2.37;2.17;;;25.60;60.00;;;;;;5120484;27;20659;-72
2023/06/19 08:00:07;;;;;;;1.60;1.50;;;25.40;59.90;;;;;;5111939;27;20673;-72
2023/06/19 08:02:34;;;;;;;1.97;1.87;;;25.20;59.40;;;;;;5111857;27;20620;-72
2023/06/19 08:05:00;;;;;;;3.03;1.90;;;25.30;59.40;;;;;;5119032;27;20654;-73
2023/06/19 08:07:27;;;;;;;2.20;1.77;;;25.30;59.10;;;;;;5121301;27;20676;-72
2023/06/19 08:09:54;;;;;;;1.70;1.60;;;25.30;58.90;;;;;;5120701;27;20710;-72
2023/06/19 08:12:21;;;;;;;1.70;1.60;;;25.20;59.70;;;;;;5113750;27;20652;-72
2023/06/19 08:14:49;;;;;;;1.87;1.77;;;25.20;60.70;;;;;;5119814;27;20625;-72
2023/06/19 08:17:16;;;;;;;2.40;2.10;;;25.00;60.00;;;;;;5119063;27;20659;-72
2023/06/19 08:19:42;;;;;;;3.10;2.90;;;24.90;59.90;;;;;;5120274;27;20624;-72
2023/06/19 08:22:09;;;;;;;2.10;1.90;;;24.80;59.90;;;;;;5121842;27;20647;-72
2023/06/19 08:24:38;;;;;;;2.17;1.97;;;24.80;60.10;;;;;;5115173;27;20644;-71
2023/06/19 08:27:06;;;;;;;1.70;1.60;;;24.70;61.10;;;;;;5117268;27;20675;-71
2023/06/19 08:29:33;;;;;;;1.70;1.60;;;24.70;61.00;;;;;;5118742;27;20619;-71
2023/06/19 08:32:01;;;;;;;1.47;1.37;;;24.80;61.60;;;;;;5116816;27;20732;-71
2023/06/19 08:34:29;;;;;;;2.37;2.17;;;24.80;62.40;;;;;;5111967;27;20659;-71
2023/06/19 08:36:55;;;;;;;2.10;1.87;;;24.90;61.50;;;;;;5118711;27;20770;-71
2023/06/19 08:39:22;;;;;;;2.10;1.90;;;25.20;60.50;;;;;;5118630;27;20658;-71
2023/06/19 08:41:49;;;;;;;1.47;1.37;;;25.20;60.80;;;;;;5115447;27;20997;-71
2023/06/19 08:44:16;;;;;;;2.70;2.40;;;25.00;61.90;;;;;;5120675;27;20715;-71
2023/06/19 08:46:43;;;;;;;2.40;2.20;;;25.00;61.50;;;;;;5118475;27;20648;-71
2023/06/19 08:49:11;;;;;;;2.27;2.07;;;25.00;61.40;;;;;;5114979;27;21069;-71
2023/06/19 08:51:38;;;;;;;2.00;1.80;;;25.20;62.20;;;;;;5109672;27;21239;-72
2023/06/19 08:54:07;;;;;;;1.80;1.70;;;25.60;61.70;;;;;;5119434;27;20623;-72
2023/06/19 08:56:37;;;;;;;2.37;2.17;;;25.70;61.20;;;;;;5121877;27;20667;-71
2023/06/19 08:59:11;;;;;;;2.13;1.93;;;25.80;59.20;;;;;;5116035;27;20647;-71
2023/06/19 09:01:38;;;;;;;6.63;1.57;;;26.10;60.20;;;;;;5108576;27;20661;-72
2023/06/19 09:04:14;;;;;;;1.67;1.57;;;26.20;58.70;;;;;;5117996;27;21059;-72
2023/06/19 09:06:49;;;;;;;1.60;1.50;;;26.20;57.70;;;;;;5110360;27;20640;-72
2023/06/19 09:09:16;;;;;;;1.97;1.77;;;26.00;57.30;;;;;;5117696;27;20920;-71
2023/06/19 09:11:44;;;;;;;1.50;1.40;;;26.20;57.40;;;;;;5116384;27;20652;-71
2023/06/19 09:14:11;;;;;;;1.30;1.20;;;26.30;57.40;;;;;;5118369;27;20975;-72
2023/06/19 09:16:39;;;;;;;1.87;1.67;;;26.60;57.00;;;;;;5120237;27;20667;-72
2023/06/19 09:19:06;;;;;;;1.40;1.30;;;26.70;56.00;;;;;;5120983;27;20666;-72
2023/06/19 09:21:37;;;;;;;1.30;1.30;;;26.80;56.20;;;;;;5117302;27;20736;-73
2023/06/19 09:24:05;;;;;;;1.37;1.27;;;27.30;56.10;;;;;;5120835;27;20628;-72
2023/06/19 09:26:32;;;;;;;1.63;1.53;;;27.30;55.40;;;;;;5117303;27;20990;-72
2023/06/19 09:28:59;;;;;;;1.77;1.67;;;27.00;54.80;;;;;;5109191;27;20623;-72
2023/06/19 09:31:33;;;;;;;1.50;1.40;;;27.00;55.40;;;;;;5118265;27;20689;-72
2023/06/19 09:34:00;;;;;;;1.80;1.70;;;27.20;55.30;;;;;;5118774;27;20649;-72
2023/06/19 09:36:27;;;;;;;2.13;1.93;;;27.30;55.80;;;;;;5117560;27;20771;-72
2023/06/19 09:38:56;;;;;;;1.60;1.50;;;27.20;54.70;;;;;;5116921;27;20623;-72
2023/06/19 09:41:26;;;;;;;1.53;1.43;;;27.20;55.60;;;;;;5106081;27;20655;-72
2023/06/19 09:43:57;;;;;;;1.80;1.57;;;27.30;54.30;;;;;;5119966;27;20618;-72
2023/06/19 09:46:31;;;;;;;1.73;1.63;;;27.20;54.40;;;;;;5107843;27;20701;-72
2023/06/19 09:49:01;;;;;;;2.10;1.50;;;27.00;55.40;;;;;;5114353;27;20633;-72
2023/06/19 09:51:31;;;;;;;1.90;1.33;;;27.10;55.70;;;;;;5118721;27;20654;-72
2023/06/19 09:54:02;;;;;;;2.20;1.87;;;27.40;55.70;;;;;;5117128;27;20622;-72
2023/06/19 09:56:28;;;;;;;2.07;1.97;;;27.60;55.30;;;;;;5108993;27;20688;-72
2023/06/19 09:58:59;;;;;;;2.13;1.93;;;27.80;56.00;;;;;;5113492;27;20623;-73
2023/06/19 10:01:28;;;;;;;1.60;1.50;;;28.10;56.30;;;;;;5119025;27;20745;-72
2023/06/19 10:04:04;;;;;;;1.90;1.80;;;28.20;54.80;;;;;;5120597;27;20618;-72
2023/06/19 10:06:31;;;;;;;2.47;2.27;;;28.60;54.00;;;;;;5119573;27;21249;-72
2023/06/19 10:09:09;;;;;;;1.80;1.70;;;28.70;53.40;;;;;;5119723;27;20953;-72
2023/06/19 10:11:47;;;;;;;2.10;1.97;;;29.00;53.80;;;;;;5109811;27;20734;-72
2023/06/19 10:14:18;;;;;;;2.60;2.27;;;29.20;53.70;;;;;;5121137;27;20621;-72
2023/06/19 10:16:44;;;;;;;1.90;1.60;;;29.00;53.00;;;;;;5106828;27;20685;-72
2023/06/19 10:19:16;;;;;;;2.63;2.43;;;29.00;52.80;;;;;;5110843;27;20630;-72
2023/06/19 10:21:47;;;;;;;2.37;1.90;;;29.10;53.20;;;;;;5123845;27;20658;-72
2023/06/19 10:24:20;;;;;;;2.40;2.20;;;29.30;54.00;;;;;;5116826;27;20620;-72
2023/06/19 10:26:58;;;;;;;1.80;1.70;;;29.10;54.00;;;;;;5121951;27;20657;-72
2023/06/19 10:29:25;;;;;;;2.30;1.97;;;29.20;53.80;;;;;;5115933;27;20627;-73
2023/06/19 10:31:52;;;;;;;2.13;1.90;;;28.70;54.30;;;;;;5118012;27;21254;-73
2023/06/19 10:34:19;;;;;;;2.70;2.20;;;28.20;53.80;;;;;;5111937;27;20638;-73
2023/06/19 10:36:46;;;;;;;2.77;2.10;;;28.20;55.00;;;;;;5118668;27;20662;-72
2023/06/19 10:39:16;;;;;;;2.30;2.10;;;28.00;54.50;;;;;;5113460;27;20631;-73
2023/06/19 10:41:44;;;;;;;1.80;1.70;;;27.80;54.30;;;;;;5100714;27;20655;-73
2023/06/19 10:44:12;;;;;;;2.43;2.23;;;27.80;55.80;;;;;;5121838;27;20623;-73
2023/06/19 10:46:40;;;;;;;3.40;2.40;;;27.90;55.00;;;;;;5116248;27;20687;-72
2023/06/19 10:49:10;;;;;;;2.13;1.93;;;27.90;55.60;;;;;;5117686;27;20719;-72
2023/06/19 10:51:37;;;;;;;1.90;1.80;;;27.80;55.90;;;;;;5112860;27;20699;-72
2023/06/19 10:54:05;;;;;;;2.43;2.23;;;28.00;56.20;;;;;;5119881;27;20621;-73
2023/06/19 10:56:32;;;;;;;2.60;2.40;;;28.10;56.10;;;;;;5112093;27;20649;-73
2023/06/19 10:59:01;;;;;;;2.07;1.97;;;28.10;56.50;;;;;;5115573;27;20624;-73
2023/06/19 11:01:36;;;;;;;2.30;2.10;;;28.10;56.70;;;;;;5119431;27;20648;-73
2023/06/19 11:04:05;;;;;;;2.63;2.43;;;28.40;56.50;;;;;;5112215;27;20977;-73
2023/06/19 11:06:32;;;;;;;2.23;2.13;;;27.80;56.30;;;;;;5113714;27;21225;-72
2023/06/19 11:09:00;;;;;;;2.57;2.37;;;28.00;56.90;;;;;;5113034;27;21260;-74
2023/06/19 11:11:39;;;;;;;2.93;2.70;;;28.40;56.10;;;;;;5117621;27;20645;-74
2023/06/19 11:14:08;;;;;;;2.50;2.23;;;28.40;55.80;;;;;;5116033;27;20734;-73
2023/06/19 11:16:35;;;;;;;2.77;2.57;;;28.20;56.70;;;;;;5121636;27;20647;-72
2023/06/19 11:19:02;;;;;;;2.03;1.83;;;28.40;56.10;;;;;;5114881;28;20628;-72
2023/06/19 11:21:34;;;;;;;2.80;2.00;;;29.00;56.60;;;;;;5116438;28;21337;-73
2023/06/19 11:24:01;;;;;;;2.57;2.37;;;29.40;55.70;;;;;;5112277;28;20680;-73
2023/06/19 11:26:28;;;;;;;3.10;2.20;;;29.70;54.80;;;;;;5118128;28;20714;-72
2023/06/19 11:28:55;;;;;;;2.20;2.00;;;29.90;55.20;;;;;;5115721;28;21209;-73
2023/06/19 11:31:28;;;;;;;2.43;2.23;;;30.50;54.20;;;;;;5116556;27;20669;-73
2023/06/19 11:33:59;;;;;;;2.80;2.60;;;30.90;52.90;;;;;;5115767;27;21271;-73
2023/06/19 11:36:26;;;;;;;2.83;2.53;;;31.10;52.70;;;;;;5123319;27;20655;-73
2023/06/19 11:38:53;;;;;;;2.93;2.73;;;31.00;51.70;;;;;;5110129;27;20640;-72
2023/06/19 11:41:27;;;;;;;2.23;2.13;;;30.50;52.40;;;;;;5120152;27;20639;-73
2023/06/19 11:43:59;;;;;;;2.13;2.00;;;31.30;52.50;;;;;;5117865;27;20628;-73
2023/06/19 11:46:31;;;;;;;2.90;2.70;;;31.80;51.30;;;;;;5119560;27;20775;-72
2023/06/19 11:49:12;;;;;;;2.87;2.57;;;32.20;49.70;;;;;;5120224;27;20619;-74
2023/06/19 11:51:39;;;;;;;2.83;2.30;;;32.50;50.10;;;;;;5117545;27;20660;-73
2023/06/19 11:54:08;;;;;;;2.63;2.30;;;32.60;50.20;;;;;;5118675;27;20630;-73
2023/06/19 11:56:35;;;;;;;2.73;2.53;;;32.50;50.20;;;;;;5108086;27;20658;-73
2023/06/19 11:59:02;;;;;;;2.43;2.30;;;32.30;50.70;;;;;;5111007;27;20625;-72
2023/06/19 12:01:30;;;;;;;2.20;2.07;;;32.20;49.70;;;;;;5109172;27;20640;-73
2023/06/19 12:03:57;;;;;;;2.40;2.20;;;31.90;50.20;;;;;;5121628;27;20627;-74
2023/06/19 12:06:24;;;;;;;2.33;2.20;;;30.60;50.80;;;;;;5112958;27;21032;-72
2023/06/19 12:08:51;;;;;;;2.70;2.50;;;30.80;52.00;;;;;;5120983;27;20619;-73
2023/06/19 12:11:18;;;;;;;2.77;2.57;;;31.20;51.50;;;;;;5105167;27;20659;-73
2023/06/19 12:13:45;;;;;;;2.43;2.33;;;31.90;51.40;;;;;;5118920;27;20634;-73
2023/06/19 12:16:12;;;;;;;3.30;3.00;;;32.50;49.80;;;;;;5120679;27;20656;-73
2023/06/19 12:18:41;;;;;;;2.10;2.00;;;33.70;48.60;;;;;;5119777;27;20666;-73
2023/06/19 12:21:08;;;;;;;2.17;2.07;;;34.50;46.70;;;;;;5108893;27;20710;-73
2023/06/19 12:23:35;;;;;;;2.37;2.20;;;34.20;46.50;;;;;;5110751;27;20613;-74
2023/06/19 12:26:01;;;;;;;2.37;2.17;;;33.80;47.50;;;;;;5118052;27;20645;-73
2023/06/19 12:28:29;;;;;;;2.40;2.23;;;34.50;45.60;;;;;;5107479;27;20993;-73
2023/06/19 12:30:58;;;;;;;2.80;2.60;;;35.00;45.80;;;;;;5115808;27;20662;-73
2023/06/19 12:33:24;;;;;;;2.27;2.17;;;35.60;44.60;;;;;;5121314;27;20635;-72
2023/06/19 12:35:53;;;;;;;2.70;2.50;;;36.40;44.10;;;;;;5119352;27;20678;-72
2023/06/19 12:38:19;;;;;;;2.50;2.30;;;36.70;43.40;;;;;;5117416;27;20646;-72
2023/06/19 12:40:46;;;;;;;2.20;2.10;;;37.30;42.00;;;;;;5117350;27;20643;-72
2023/06/19 12:43:13;;;;;;;2.20;2.10;;;37.20;41.20;;;;;;5111190;27;21198;-72
2023/06/19 12:45:41;;;;;;;2.47;2.27;;;36.30;41.70;;;;;;5108556;27;20687;-72
2023/06/19 12:48:07;;;;;;;3.03;2.83;;;35.20;43.10;;;;;;5110302;27;20843;-72
2023/06/19 12:50:35;;;;;;;2.67;2.47;;;34.50;44.00;;;;;;5112992;27;20735;-72
2023/06/19 12:53:03;;;;;;;2.60;2.40;;;34.30;45.00;;;;;;5115411;27;20624;-72